Time;durP1;ratioP1;P1;durP2;ratioP2;P2;SDS_P1;SDS_P2;PMS_P1;PMS_P2;Temp;Humidity;BMP_temperature;BMP_pressure;BME280_temperature;BME280_humidity;BME280_pressure;Samples;Min_cycle;Max_cycle;Signal;HPM_P1;HPM_P2
2022/05/19 00:02:19;;;;;;;30.90;22.85;;;;;;;19.79;74.37;101673.94;5094944;28;20024;-72
2022/05/19 00:04:45;;;;;;;35.08;23.65;;;;;;;19.73;75.32;101668.94;5094927;28;20066;-72
2022/05/19 00:07:11;;;;;;;33.30;23.67;;;;;;;19.63;75.47;101672.00;5093990;28;20032;-72
2022/05/19 00:09:37;;;;;;;31.13;23.17;;;;;;;19.67;75.17;101662.13;5094651;28;20073;-72
2022/05/19 00:12:15;;;;;;;34.78;24.10;;;;;;;19.56;75.14;101657.34;5095085;28;20062;-72
2022/05/19 00:14:41;;;;;;;35.00;23.77;;;;;;;19.49;76.14;101647.13;5094019;28;20020;-72
2022/05/19 00:17:07;;;;;;;30.60;23.63;;;;;;;19.47;76.06;101641.06;5094857;28;20043;-71
2022/05/19 00:19:32;;;;;;;35.70;23.13;;;;;;;19.51;76.14;101647.91;5094433;28;20491;-72
2022/05/19 00:21:57;;;;;;;33.90;22.85;;;;;;;19.51;76.32;101650.56;5094084;28;20110;-72
2022/05/19 00:24:23;;;;;;;39.22;24.98;;;;;;;19.42;76.51;101650.06;5094689;28;20020;-72
2022/05/19 00:26:48;;;;;;;31.63;23.80;;;;;;;19.45;76.70;101640.25;5094520;28;20027;-72
2022/05/19 00:29:13;;;;;;;29.83;24.50;;;;;;;19.41;76.87;101645.69;5093847;28;20035;-72
2022/05/19 00:31:39;;;;;;;30.42;23.20;;;;;;;19.45;76.82;101642.91;5094365;28;20092;-72
2022/05/19 00:34:04;;;;;;;32.90;24.27;;;;;;;19.41;77.17;101624.53;5094726;28;20499;-72
2022/05/19 00:36:30;;;;;;;29.73;23.10;;;;;;;19.39;77.33;101634.34;5093481;28;20077;-72
2022/05/19 00:38:55;;;;;;;30.83;23.88;;;;;;;19.39;77.18;101633.47;5094278;28;20024;-72
2022/05/19 00:41:21;;;;;;;31.63;24.45;;;;;;;19.31;77.65;101627.72;5094339;28;20149;-72
2022/05/19 00:44:03;;;;;;;32.05;23.80;;;;;;;19.33;77.11;101632.00;5093585;28;20444;-72
2022/05/19 00:46:56;;;;;;;30.92;24.23;;;;;;;19.29;76.73;101629.56;5094406;28;20471;-72
2022/05/19 00:49:36;;;;;;;35.43;24.93;;;;;;;19.22;77.52;101614.94;5093165;28;20032;-72
2022/05/19 00:52:08;;;;;;;34.08;25.23;;;;;;;19.22;77.91;101623.72;5094132;28;20059;-72
2022/05/19 00:54:39;;;;;;;33.83;24.75;;;;;;;19.13;78.24;101616.25;5093823;28;20028;-72
2022/05/19 00:57:10;;;;;;;32.00;24.35;;;;;;;19.06;78.64;101606.84;5093508;28;20020;-72
2022/05/19 00:59:50;;;;;;;38.90;26.05;;;;;;;19.06;79.02;101610.34;5093751;28;20028;-72
2022/05/19 01:02:20;;;;;;;35.28;24.50;;;;;;;19.06;78.77;101602.41;5093948;28;20062;-72
2022/05/19 01:04:51;;;;;;;34.33;25.60;;;;;;;19.00;79.21;101602.75;5093322;28;20020;-72
2022/05/19 01:07:23;;;;;;;36.40;25.23;;;;;;;18.95;79.10;101596.78;5093752;28;20016;-72
2022/05/19 01:09:52;;;;;;;37.40;25.23;;;;;;;18.92;79.56;101602.22;5092833;28;20103;-72
2022/05/19 01:12:18;;;;;;;31.15;25.10;;;;;;;18.91;79.58;101593.44;5093694;28;20063;-72
2022/05/19 01:14:43;;;;;;;35.80;25.92;;;;;;;18.86;80.18;101592.78;5093605;28;20030;-72
2022/05/19 01:17:09;;;;;;;33.10;25.42;;;;;;;18.85;80.08;101585.78;5093283;28;20032;-72
2022/05/19 01:19:44;;;;;;;36.10;25.48;;;;;;;18.85;79.78;101583.16;5093476;28;20043;-71
2022/05/19 01:22:30;;;;;;;35.65;26.60;;;;;;;18.82;79.87;101585.94;5093410;28;20028;-72
2022/05/19 01:25:08;;;;;;;39.53;25.83;;;;;;;18.79;80.07;101586.06;5093050;28;20152;-72
2022/05/19 01:27:34;;;;;;;34.38;26.90;;;;;;;18.74;80.74;101574.88;5092947;28;20032;-72
2022/05/19 01:29:59;;;;;;;39.38;26.65;;;;;;;18.76;80.95;101577.44;5093599;28;20055;-71
2022/05/19 01:32:29;;;;;;;37.95;27.83;;;;;;;18.69;81.40;101577.69;5092318;28;20059;-72
2022/05/19 01:34:56;;;;;;;36.88;27.65;;;;;;;18.69;81.35;101568.91;5092953;28;20032;-72
2022/05/19 01:37:22;;;;;;;36.45;26.95;;;;;;;18.69;81.71;101560.97;5093180;28;20047;-72
2022/05/19 01:39:53;;;;;;;34.90;28.00;;;;;;;18.69;81.31;101563.63;5092357;28;20020;-71
2022/05/19 01:42:35;;;;;;;35.70;27.77;;;;;;;18.66;81.56;101561.97;5092876;28;20027;-72
2022/05/19 01:45:36;;;;;;;35.42;26.33;;;;;;;18.67;79.97;101566.34;5092664;28;20054;-72
2022/05/19 01:48:21;;;;;;;34.80;27.55;;;;;;;18.57;81.27;101562.38;5093415;28;20029;-71
2022/05/19 01:51:24;;;;;;;40.33;28.95;;;;;;;18.56;80.91;101550.13;5092798;28;20078;-72
2022/05/19 01:54:04;;;;;;;35.85;27.48;;;;;;;18.58;81.48;101558.84;5091935;28;20039;-72
2022/05/19 01:56:38;;;;;;;37.35;27.65;;;;;;;18.54;82.89;101559.03;5092657;28;20519;-72
2022/05/19 01:59:22;;;;;;;37.83;28.50;;;;;;;18.56;81.52;101559.84;5092444;28;20020;-71
2022/05/19 02:02:19;;;;;;;36.53;28.25;;;;;;;18.51;82.13;101549.50;5092591;28;20031;-72
2022/05/19 02:04:52;;;;;;;33.78;27.80;;;;;;;18.59;82.58;101551.78;5084978;28;20032;-72
2022/05/19 02:07:19;;;;;;;38.58;27.27;;;;;;;18.56;83.13;101542.19;5091973;28;20064;-72
2022/05/19 02:09:55;;;;;;;31.92;26.52;;;;;;;18.57;82.77;101535.13;5092412;28;20379;-72
2022/05/19 02:12:21;;;;;;;32.55;26.88;;;;;;;18.59;82.66;101541.22;5092356;28;20036;-72
2022/05/19 02:14:54;;;;;;;33.88;27.40;;;;;;;18.60;82.88;101542.91;5091826;28;20035;-72
2022/05/19 02:17:22;;;;;;;31.58;26.48;;;;;;;18.64;82.70;101544.50;5092552;28;20023;-72
2022/05/19 02:19:52;;;;;;;34.40;26.75;;;;;;;18.63;83.04;101550.69;5092342;28;20028;-72
2022/05/19 02:22:22;;;;;;;32.88;25.98;;;;;;;18.66;82.95;101547.91;5091231;28;20181;-71
2022/05/19 02:25:00;;;;;;;36.00;26.52;;;;;;;18.60;82.51;101540.28;5092230;28;20032;-72
2022/05/19 02:27:37;;;;;;;33.92;24.88;;;;;;;18.69;82.07;101550.41;5091525;28;20035;-72
2022/05/19 02:30:08;;;;;;;33.08;24.92;;;;;;;18.66;82.71;101548.78;5092574;28;20107;-72
2022/05/19 02:32:35;;;;;;;29.40;24.52;;;;;;;18.70;82.72;101546.84;5091620;28;20550;-71
2022/05/19 02:35:01;;;;;;;31.00;23.98;;;;;;;18.77;82.46;101550.09;5091790;28;20156;-72
2022/05/19 02:37:27;;;;;;;31.58;24.65;;;;;;;18.78;82.42;101544.75;5091952;28;20020;-72
2022/05/19 02:39:52;;;;;;;29.45;24.30;;;;;;;18.80;82.04;101556.13;5092265;28;20039;-72
2022/05/19 02:42:18;;;;;;;37.63;24.95;;;;;;;18.87;81.90;101557.53;5091498;28;20028;-72
2022/05/19 02:44:43;;;;;;;31.45;24.02;;;;;;;18.84;82.17;101560.31;5092101;28;20475;-72
2022/05/19 02:47:08;;;;;;;27.77;23.05;;;;;;;18.82;82.36;101553.38;5092169;28;20024;-72
2022/05/19 02:49:33;;;;;;;28.48;22.58;;;;;;;18.93;81.79;101562.53;5090921;28;20060;-71
2022/05/19 02:51:59;;;;;;;29.25;22.30;;;;;;;18.98;81.25;101559.66;5091739;28;20058;-72
2022/05/19 02:54:24;;;;;;;25.13;21.42;;;;;;;18.91;81.24;101559.09;5092131;28;20156;-71
2022/05/19 02:56:49;;;;;;;27.50;20.02;;;;;;;18.99;80.63;101560.50;5091257;28;20076;-71
2022/05/19 02:59:14;;;;;;;24.83;19.48;;;;;;;19.03;81.14;101570.00;5092007;28;20024;-71
2022/05/19 03:01:40;;;;;;;20.25;18.05;;;;;;;19.02;80.67;101581.50;5091796;28;20056;-72
2022/05/19 03:04:05;;;;;;;22.60;18.20;;;;;;;19.01;80.86;101600.94;5091379;28;20032;-71
2022/05/19 03:06:30;;;;;;;20.42;16.95;;;;;;;19.02;81.13;101684.56;5091374;28;20086;-72
2022/05/19 03:08:56;;;;;;;20.13;17.20;;;;;;;19.03;81.17;101686.28;5091932;28;20020;-72
2022/05/19 03:11:21;;;;;;;28.38;21.80;;;;;;;19.04;80.39;101685.38;5090860;28;20388;-72
2022/05/19 03:13:46;;;;;;;26.08;21.98;;;;;;;19.04;79.66;101682.72;5091830;28;20051;-72
2022/05/19 03:16:12;;;;;;;26.45;20.42;;;;;;;19.11;79.92;101724.66;5091747;28;20097;-72
2022/05/19 03:18:37;;;;;;;26.80;20.42;;;;;;;19.11;79.81;101719.38;5091042;28;20045;-71
2022/05/19 03:21:02;;;;;;;25.13;19.92;;;;;;;19.11;78.68;101729.94;5091825;28;20479;-72
2022/05/19 03:23:28;;;;;;;24.80;19.42;;;;;;;19.11;78.93;101711.44;5090903;28;20062;-72
2022/05/19 03:25:54;;;;;;;27.92;18.58;;;;;;;19.14;78.79;101721.88;5091538;28;20496;-72
2022/05/19 03:28:19;;;;;;;21.48;18.02;;;;;;;19.17;78.72;101715.59;5091712;28;20031;-72
2022/05/19 03:30:44;;;;;;;23.17;17.45;;;;;;;19.22;77.97;101724.16;5090746;28;20028;-71
2022/05/19 03:33:10;;;;;;;24.98;18.10;;;;;;;19.17;78.62;101720.88;5092214;28;20487;-72
2022/05/19 03:35:35;;;;;;;23.98;18.73;;;;;;;19.20;78.10;101706.66;5095469;28;20024;-72
2022/05/19 03:38:01;;;;;;;22.92;17.38;;;;;;;19.18;78.41;101719.94;5094842;28;20074;-71
2022/05/19 03:40:26;;;;;;;22.90;16.60;;;;;;;19.10;79.42;101724.72;5095533;28;20027;-72
2022/05/19 03:42:51;;;;;;;22.48;16.38;;;;;;;19.06;79.93;101721.34;5095397;28;20028;-71
2022/05/19 03:45:17;;;;;;;22.92;16.50;;;;;;;19.00;79.52;101741.91;5094607;28;20062;-72
2022/05/19 03:47:42;;;;;;;20.25;16.80;;;;;;;18.97;80.35;101702.44;5095246;28;20466;-71
2022/05/19 03:50:09;;;;;;;20.75;17.05;;;;;;;18.92;80.68;101684.13;5095548;28;20028;-71
2022/05/19 03:52:42;;;;;;;29.38;18.65;;;;;;;18.99;80.06;101714.63;5094144;28;20044;-71
2022/05/19 03:55:08;;;;;;;21.10;16.00;;;;;;;19.00;80.00;101704.91;5095590;28;20032;-71
2022/05/19 03:57:34;;;;;;;20.08;16.63;;;;;;;18.99;80.94;101709.34;5095078;28;20024;-72
2022/05/19 03:59:59;;;;;;;25.20;17.15;;;;;;;19.00;80.50;101732.22;5094954;28;20047;-71
2022/05/19 04:02:24;;;;;;;21.40;17.45;;;;;;;19.02;80.11;101740.06;5094977;28;20028;-71
2022/05/19 04:04:50;;;;;;;20.73;16.05;;;;;;;19.07;80.20;101740.72;5094756;28;20048;-71
2022/05/19 04:07:15;;;;;;;22.75;17.77;;;;;;;19.09;80.69;101730.94;5094200;28;20497;-71
2022/05/19 04:09:41;;;;;;;20.42;16.55;;;;;;;19.09;79.97;101728.28;5094756;28;20024;-72
2022/05/19 04:12:07;;;;;;;20.58;16.83;;;;;;;19.12;80.35;101733.44;5095121;28;20119;-72
2022/05/19 04:14:32;;;;;;;21.38;17.42;;;;;;;19.11;80.29;101729.09;5093844;28;20020;-71
2022/05/19 04:16:57;;;;;;;21.77;17.08;;;;;;;19.08;80.28;101739.78;5094904;28;20028;-71
2022/05/19 04:19:23;;;;;;;28.73;16.70;;;;;;;19.06;80.10;101729.28;5094511;28;20024;-72
2022/05/19 04:21:48;;;;;;;20.30;16.00;;;;;;;19.07;80.29;101738.09;5093758;28;20517;-71
2022/05/19 04:24:13;;;;;;;22.20;15.75;;;;;;;19.11;80.56;101734.38;5094757;28;20048;-71
2022/05/19 04:26:38;;;;;;;24.70;15.98;;;;;;;19.12;80.77;101736.94;5094531;28;20054;-71
2022/05/19 04:29:04;;;;;;;19.33;15.85;;;;;;;19.15;81.15;101730.66;5094032;28;20030;-71
2022/05/19 04:31:30;;;;;;;19.30;15.95;;;;;;;19.20;80.60;101725.19;5094370;28;20491;-72
2022/05/19 04:33:55;;;;;;;19.55;16.88;;;;;;;19.18;80.44;101714.66;5093876;28;20464;-72
2022/05/19 04:36:20;;;;;;;21.60;17.27;;;;;;;19.30;80.65;101727.31;5094254;28;20028;-71
2022/05/19 04:38:46;;;;;;;20.90;16.85;;;;;;;19.32;80.60;101720.16;5094333;28;20020;-72
2022/05/19 04:41:11;;;;;;;21.40;17.80;;;;;;;19.24;80.38;101724.94;5093453;28;20032;-72
2022/05/19 04:43:37;;;;;;;22.58;19.23;;;;;;;19.25;80.60;101726.66;5094156;28;20435;-71
2022/05/19 04:46:02;;;;;;;20.95;16.48;;;;;;;19.28;80.77;101730.97;5094308;28;20118;-72
2022/05/19 04:48:27;;;;;;;20.80;16.70;;;;;;;19.25;80.83;101725.81;5093426;28;20476;-72
2022/05/19 04:50:55;;;;;;;22.73;17.08;;;;;;;19.24;80.45;101713.53;5093908;28;20103;-72
2022/05/19 04:53:21;;;;;;;19.45;16.70;;;;;;;19.28;81.36;101723.03;5093759;28;20398;-72
2022/05/19 04:55:46;;;;;;;23.23;18.23;;;;;;;19.30;81.19;101716.75;5093274;28;20099;-71
2022/05/19 04:58:12;;;;;;;25.35;19.42;;;;;;;19.30;81.10;101721.19;5094046;28;20365;-72
2022/05/19 05:00:38;;;;;;;22.08;17.90;;;;;;;19.31;80.54;101718.44;5093842;28;20038;-71
2022/05/19 05:03:04;;;;;;;20.60;17.45;;;;;;;19.27;81.40;101724.81;5093367;28;20380;-71
2022/05/19 05:05:30;;;;;;;18.90;16.75;;;;;;;19.26;82.31;101722.22;5093620;28;20114;-72
2022/05/19 05:07:55;;;;;;;24.00;16.95;;;;;;;19.21;82.81;101727.72;5094120;28;20155;-72
2022/05/19 05:10:20;;;;;;;22.90;18.65;;;;;;;19.20;82.76;101718.09;5093131;28;20028;-71
2022/05/19 05:12:46;;;;;;;25.30;18.50;;;;;;;19.12;82.49;101694.63;5093563;28;20085;-72
2022/05/19 05:15:11;;;;;;;21.35;18.02;;;;;;;19.15;83.00;101698.94;5093494;28;20036;-72
2022/05/19 05:17:36;;;;;;;26.77;17.48;;;;;;;19.13;83.55;101693.72;5092805;28;20031;-72
2022/05/19 05:20:04;;;;;;;32.88;20.75;;;;;;;19.03;86.80;101683.63;5093615;28;20032;-72
2022/05/19 05:22:30;;;;;;;29.23;20.60;;;;;;;18.78;90.03;101675.97;5093240;28;20475;-72
2022/05/19 05:24:57;;;;;;;26.05;19.98;;;;;;;18.54;92.45;101685.78;5092683;28;20455;-72
2022/05/19 05:27:22;;;;;;;25.55;18.63;;;;;;;18.38;94.20;101659.22;5093471;28;20024;-73
2022/05/19 05:29:47;;;;;;;24.98;20.33;;;;;;;18.23;95.81;101676.53;5093130;28;20468;-73
2022/05/19 05:32:12;;;;;;;24.40;19.90;;;;;;;18.12;96.97;101665.59;5092350;28;20028;-73
2022/05/19 05:34:38;;;;;;;26.67;20.52;;;;;;;18.07;97.78;101659.63;5093095;28;20035;-73
2022/05/19 05:37:04;;;;;;;29.45;20.50;;;;;;;18.11;98.87;101663.84;5092482;28;20065;-73
2022/05/19 05:39:29;;;;;;;28.50;20.08;;;;;;;18.11;99.45;101645.38;5093210;28;20062;-73
2022/05/19 05:41:54;;;;;;;27.80;20.98;;;;;;;18.10;99.60;101627.84;5093036;28;20040;-73
2022/05/19 05:44:20;;;;;;;23.60;20.17;;;;;;;18.14;99.29;101622.34;5092200;28;20043;-73
2022/05/19 05:46:45;;;;;;;23.85;18.73;;;;;;;18.20;97.07;101610.69;5092926;28;20039;-73
2022/05/19 05:49:10;;;;;;;20.15;17.92;;;;;;;18.24;96.63;101604.34;5092686;28;20494;-72
2022/05/19 05:51:36;;;;;;;20.35;17.02;;;;;;;18.31;96.83;101624.28;5091897;28;20048;-73
2022/05/19 05:54:01;;;;;;;20.02;17.75;;;;;;;18.36;97.35;101634.66;5093209;28;20518;-72
2022/05/19 05:56:27;;;;;;;19.75;17.05;;;;;;;18.43;96.01;101620.25;5092053;28;20024;-72
2022/05/19 05:58:52;;;;;;;19.17;15.82;;;;;;;18.46;94.92;101620.97;5091964;28;20031;-72
2022/05/19 06:01:18;;;;;;;20.65;16.65;;;;;;;18.53;94.52;101610.13;5092614;28;20047;-72
2022/05/19 06:03:45;;;;;;;20.88;16.60;;;;;;;18.58;94.22;101597.59;5092292;28;20144;-73
2022/05/19 06:06:11;;;;;;;20.52;18.33;;;;;;;18.56;94.75;101599.44;5091945;28;20024;-72
2022/05/19 06:08:36;;;;;;;22.15;19.15;;;;;;;18.64;95.27;101629.03;5092654;28;20440;-72
2022/05/19 06:11:02;;;;;;;24.10;19.30;;;;;;;18.74;95.47;101640.03;5092699;28;20043;-72
2022/05/19 06:13:28;;;;;;;21.77;19.55;;;;;;;18.83;94.37;101635.19;5091769;28;20041;-72
2022/05/19 06:15:53;;;;;;;22.42;19.88;;;;;;;18.98;95.93;101630.16;5092297;28;20112;-72
2022/05/19 06:18:18;;;;;;;30.58;20.70;;;;;;;19.09;93.48;101631.34;5092207;28;20023;-72
2022/05/19 06:20:44;;;;;;;23.05;20.27;;;;;;;19.17;93.68;101633.66;5091763;28;20056;-72
2022/05/19 06:23:10;;;;;;;26.45;20.55;;;;;;;19.24;92.65;101629.78;5092405;28;20024;-72
2022/05/19 06:25:36;;;;;;;29.02;20.70;;;;;;;19.31;92.96;101625.91;5092409;28;20024;-72
2022/05/19 06:28:01;;;;;;;24.80;20.95;;;;;;;19.40;90.76;101622.00;5091604;28;20027;-72
2022/05/19 06:30:28;;;;;;;23.88;20.77;;;;;;;19.52;91.64;101617.88;5092168;28;20024;-72
2022/05/19 06:32:54;;;;;;;28.63;21.60;;;;;;;19.60;90.59;101611.28;5091843;28;20479;-72
2022/05/19 06:35:23;;;;;;;25.80;20.77;;;;;;;19.66;88.98;101615.47;5091526;28;20035;-72
2022/05/19 06:37:49;;;;;;;25.75;20.38;;;;;;;19.71;90.17;101617.88;5092182;28;20020;-72
2022/05/19 06:40:16;;;;;;;27.10;20.85;;;;;;;19.73;89.74;101616.03;5092124;28;20024;-72
2022/05/19 06:42:42;;;;;;;22.08;19.65;;;;;;;19.76;89.09;101611.44;5091388;28;20114;-72
2022/05/19 06:45:08;;;;;;;23.65;20.83;;;;;;;19.77;88.42;101607.84;5092320;28;20091;-72
2022/05/19 06:47:34;;;;;;;22.13;19.67;;;;;;;19.79;87.27;101590.13;5090630;28;20460;-72
2022/05/19 06:49:59;;;;;;;27.40;20.17;;;;;;;19.76;88.74;101595.56;5092068;28;20111;-72
2022/05/19 06:52:28;;;;;;;21.70;19.38;;;;;;;19.75;87.68;101596.50;5091635;28;20174;-72
2022/05/19 06:54:58;;;;;;;25.50;20.42;;;;;;;19.74;88.54;101601.84;5091088;28;20024;-72
2022/05/19 06:57:26;;;;;;;25.42;21.15;;;;;;;19.78;89.02;101595.47;5091851;28;20024;-72
2022/05/19 06:59:51;;;;;;;24.08;19.55;;;;;;;19.92;88.19;101613.31;5091642;28;20039;-72
2022/05/19 07:02:19;;;;;;;26.83;19.88;;;;;;;20.00;86.88;101604.03;5091032;28;20024;-72
2022/05/19 07:04:45;;;;;;;21.92;19.33;;;;;;;20.08;87.02;101598.38;5091833;28;20073;-72
2022/05/19 07:07:11;;;;;;;22.48;19.65;;;;;;;20.14;87.48;101595.38;5092534;28;20036;-72
2022/05/19 07:09:37;;;;;;;21.58;19.27;;;;;;;20.11;86.60;101595.56;5095281;28;20020;-72
2022/05/19 07:12:04;;;;;;;23.00;18.83;;;;;;;20.07;86.43;101594.00;5096001;28;20020;-72
2022/05/19 07:14:30;;;;;;;23.00;20.08;;;;;;;20.01;88.56;101589.91;5095825;28;20082;-73
2022/05/19 07:16:55;;;;;;;24.50;19.95;;;;;;;19.98;88.14;101587.41;5095300;28;20016;-72
2022/05/19 07:22:06;;;;;;;24.90;20.75;;;;;;;20.01;87.74;101583.72;5095990;28;20127;-72
2022/05/19 07:24:31;;;;;;;22.77;20.33;;;;;;;20.03;87.38;101584.50;5094648;28;20028;-72
2022/05/19 07:26:58;;;;;;;23.30;20.40;;;;;;;20.02;87.75;101586.31;5095779;28;20028;-72
2022/05/19 07:29:25;;;;;;;24.92;19.55;;;;;;;20.10;86.35;101578.81;5095740;28;20429;-72
2022/05/19 07:31:52;;;;;;;24.58;21.60;;;;;;;20.15;86.17;101583.03;5094817;28;20064;-72
2022/05/19 07:34:21;;;;;;;24.23;21.05;;;;;;;20.25;87.06;101577.16;5095617;28;20102;-72
2022/05/19 07:36:47;;;;;;;24.27;20.00;;;;;;;20.34;84.62;101589.94;5094671;28;20028;-72
2022/05/19 07:39:13;;;;;;;23.25;19.40;;;;;;;20.45;86.04;101599.94;5095285;28;20039;-72
2022/05/19 07:41:40;;;;;;;21.25;18.38;;;;;;;20.53;82.92;101596.91;5095073;28;20027;-72
2022/05/19 07:44:07;;;;;;;22.83;19.35;;;;;;;20.65;82.28;101608.66;5094974;28;20049;-72
2022/05/19 07:46:33;;;;;;;21.95;17.55;;;;;;;20.76;81.16;101609.81;5095052;28;20035;-72
2022/05/19 07:48:58;;;;;;;24.55;19.23;;;;;;;20.80;80.78;101610.50;5095534;28;20024;-72
2022/05/19 07:51:36;;;;;;;22.05;18.73;;;;;;;20.86;80.61;101599.53;5094238;28;20024;-81
2022/05/19 07:54:01;;;;;;;21.98;19.52;;;;;;;20.92;81.18;101598.34;5095299;28;20449;-81
2022/05/19 07:56:27;;;;;;;21.02;18.75;;;;;;;21.10;79.89;101597.34;5094942;28;20460;-72
2022/05/19 07:58:53;;;;;;;24.20;18.73;;;;;;;21.21;79.94;101594.09;5094327;28;20023;-73
2022/05/19 08:01:19;;;;;;;21.20;19.00;;;;;;;21.32;78.33;101593.47;5094939;28;20468;-73
2022/05/19 08:03:44;;;;;;;21.23;18.00;;;;;;;21.42;78.24;101584.97;5094962;28;20031;-73
2022/05/19 08:06:10;;;;;;;20.77;17.85;;;;;;;21.51;78.74;101587.06;5094233;28;20125;-72
2022/05/19 08:08:37;;;;;;;18.60;16.70;;;;;;;21.68;76.36;101587.88;5094796;28;20480;-72
2022/05/19 08:11:03;;;;;;;19.17;16.30;;;;;;;21.74;73.47;101580.44;5094898;28;20387;-73
2022/05/19 08:16:14;;;;;;;25.27;14.48;;;;;;;21.97;71.26;101584.41;5095133;28;20059;-72
2022/05/19 08:18:39;;;;;;;18.85;15.30;;;;;;;22.03;70.99;101591.13;5094094;28;20471;-73
2022/05/19 08:21:11;;;;;;;16.00;13.70;;;;;;;22.15;70.44;101600.16;5093911;28;20498;-73
2022/05/19 08:23:42;;;;;;;15.88;14.23;;;;;;;22.23;70.79;101595.25;5094689;28;20024;-72
2022/05/19 08:26:08;;;;;;;17.08;12.82;;;;;;;22.35;68.97;101593.66;5094256;28;20020;-73
2022/05/19 08:28:34;;;;;;;18.15;13.05;;;;;;;22.45;68.37;101597.47;5094205;28;20485;-73
2022/05/19 08:31:03;;;;;;;14.10;12.60;;;;;;;22.58;67.12;101590.44;5094687;28;20056;-73
2022/05/19 08:33:29;;;;;;;14.70;11.63;;;;;;;22.72;64.82;101592.22;5093572;28;20036;-73
2022/05/19 08:35:54;;;;;;;14.18;12.10;;;;;;;22.84;64.81;101574.66;5094286;28;20026;-73
2022/05/19 08:38:21;;;;;;;14.48;11.50;;;;;;;23.04;64.76;101579.59;5094425;28;20418;-73
2022/05/19 08:40:51;;;;;;;18.05;11.73;;;;;;;23.24;64.12;101583.63;5093495;28;20028;-73
2022/05/19 08:43:19;;;;;;;14.45;11.00;;;;;;;23.44;61.57;101587.63;5094226;28;20081;-73
2022/05/19 08:45:50;;;;;;;14.90;11.70;;;;;;;23.59;61.42;101580.47;5094166;28;20107;-73
2022/05/19 08:48:22;;;;;;;16.55;11.40;;;;;;;23.74;61.69;101571.50;5093198;28;20439;-73
2022/05/19 08:51:01;;;;;;;15.63;11.63;;;;;;;23.90;60.72;101573.94;5094124;28;20016;-73
2022/05/19 08:53:33;;;;;;;14.30;10.98;;;;;;;24.09;61.00;101562.03;5093815;28;20048;-73
2022/05/19 08:56:04;;;;;;;11.93;9.43;;;;;;;24.18;58.16;101562.25;5093522;28;20035;-73
2022/05/19 08:58:38;;;;;;;11.00;9.05;;;;;;;24.28;57.88;101559.81;5094040;28;20039;-73
2022/05/19 09:01:22;;;;;;;12.73;7.80;;;;;;;24.46;58.70;101552.34;5093545;28;20031;-73
2022/05/19 09:03:56;;;;;;;;;;;;;;;24.65;57.90;101557.22;5094377;28;20028;-72
2022/05/19 09:06:30;;;;;;;12.25;8.77;;;;;;;24.60;57.88;101551.38;5093631;28;19912;-73
2022/05/19 09:09:14;;;;;;;15.25;9.15;;;;;;;24.58;55.42;101555.97;5093311;28;20020;-73
2022/05/19 09:11:44;;;;;;;16.15;9.35;;;;;;;24.66;55.40;101545.63;5093838;28;20060;-72
2022/05/19 09:14:24;;;;;;;12.68;9.50;;;;;;;24.97;56.39;101552.22;5093551;28;20027;-73
2022/05/19 09:16:55;;;;;;;13.95;8.60;;;;;;;25.49;56.36;101545.72;5092742;28;20427;-73
2022/05/19 09:19:33;;;;;;;12.02;8.70;;;;;;;26.09;53.15;101539.34;5093457;28;20107;-73
2022/05/19 09:22:11;;;;;;;14.73;9.38;;;;;;;26.49;53.22;101544.28;5093860;28;20051;-73
2022/05/19 09:24:37;;;;;;;10.70;8.50;;;;;;;26.77;51.82;101532.19;5093650;28;20357;-73
2022/05/19 09:27:04;;;;;;;9.98;7.55;;;;;;;27.04;51.99;101526.44;5093513;28;20078;-73
2022/05/19 09:29:29;;;;;;;15.18;9.55;;;;;;;27.16;51.15;101534.44;5092688;28;20291;-73
2022/05/19 09:32:03;;;;;;;15.27;7.90;;;;;;;27.13;50.04;101532.88;5091979;28;20123;-73
2022/05/19 09:34:29;;;;;;;10.52;7.72;;;;;;;27.13;51.35;101535.53;5093416;28;20303;-73
2022/05/19 09:37:01;;;;;;;14.52;8.23;;;;;;;27.10;51.27;101543.78;5092610;28;20464;-73
2022/05/19 09:39:35;;;;;;;10.43;8.23;;;;;;;27.15;51.11;101551.50;5093323;28;20024;-73
2022/05/19 09:42:05;;;;;;;9.25;7.70;;;;;;;26.99;50.23;101544.69;5093205;28;20028;-73
2022/05/19 09:44:34;;;;;;;14.43;8.75;;;;;;;26.83;50.81;101536.19;5092024;28;20036;-73
2022/05/19 09:47:17;;;;;;;9.85;8.15;;;;;;;26.78;51.32;101538.38;5093438;28;20032;-73
2022/05/19 09:49:51;;;;;;;10.98;7.80;;;;;;;26.76;52.67;101538.53;5093128;28;20024;-73
2022/05/19 09:52:23;;;;;;;17.67;7.70;;;;;;;26.75;51.88;101528.81;5091681;28;20492;-73
2022/05/19 09:54:54;;;;;;;9.85;7.22;;;;;;;26.87;52.45;101531.44;5092756;28;20107;-73
2022/05/19 09:57:25;;;;;;;10.40;7.65;;;;;;;26.92;52.51;101524.75;5091943;28;20048;-73
2022/05/19 09:59:53;;;;;;;10.50;7.85;;;;;;;26.84;50.75;101528.03;5092829;28;20097;-73
2022/05/19 10:02:25;;;;;;;9.70;6.95;;;;;;;26.87;52.86;101510.91;5092749;28;20028;-73
2022/05/19 10:04:54;;;;;;;11.45;7.78;;;;;;;26.80;49.93;101515.91;5091917;28;20384;-73
2022/05/19 10:07:25;;;;;;;11.48;6.72;;;;;;;26.73;51.31;101508.50;5092525;28;20020;-73
2022/05/19 10:09:54;;;;;;;13.57;6.13;;;;;;;26.78;50.03;101501.81;5092600;28;20027;-73
2022/05/19 10:12:31;;;;;;;10.95;6.20;;;;;;;26.88;48.87;101490.34;5091477;28;20494;-73
2022/05/19 10:15:04;;;;;;;8.15;5.53;;;;;;;26.99;49.51;101482.28;5092763;28;20020;-73
2022/05/19 10:17:46;;;;;;;9.27;5.47;;;;;;;27.15;49.58;101480.06;5092291;28;20032;-73
2022/05/19 10:20:18;;;;;;;10.30;5.47;;;;;;;27.31;47.27;101464.41;5091657;28;20032;-73
2022/05/19 10:22:44;;;;;;;7.97;5.88;;;;;;;27.48;46.24;101467.50;5092445;28;20020;-73
2022/05/19 10:25:34;;;;;;;10.10;5.72;;;;;;;27.64;47.05;101481.28;5092317;28;20496;-73
2022/05/19 10:31:06;;;;;;;12.32;5.10;;;;;;;27.95;45.55;101478.66;5092333;28;20089;-73
2022/05/19 10:33:47;;;;;;;12.95;5.40;;;;;;;28.15;46.07;101467.03;5091070;28;20399;-73
2022/05/19 10:36:32;;;;;;;7.28;5.50;;;;;;;28.37;44.16;101465.97;5092152;28;20535;-73
2022/05/19 10:39:22;;;;;;;8.98;5.57;;;;;;;28.54;44.96;101469.00;5092328;28;20063;-73
2022/05/19 10:42:32;;;;;;;9.38;5.65;;;;;;;28.84;44.99;101463.56;5091016;28;20032;-73
2022/05/19 10:45:07;;;;;;;8.35;4.90;;;;;;;29.14;43.15;101483.25;5070665;28;20028;-73
2022/05/19 10:47:51;;;;;;;9.13;5.05;;;;;;;29.12;41.81;101479.84;5090799;28;20077;-73
2022/05/19 10:50:29;;;;;;;8.48;4.90;;;;;;;29.08;41.96;101473.06;5092074;28;20045;-73
2022/05/19 10:53:27;;;;;;;13.25;5.70;;;;;;;29.11;41.16;101467.44;5091483;28;20052;-73
2022/05/19 10:56:15;;;;;;;8.68;4.97;;;;;;;29.39;41.39;101463.00;5046590;28;20533;-73
2022/05/19 10:59:12;;;;;;;11.57;5.32;;;;;;;29.74;41.89;101465.09;5091593;28;20510;-73
2022/05/19 11:01:55;;;;;;;5.82;4.80;;;;;;;29.70;42.21;101454.78;5090987;28;20141;-73
2022/05/19 11:04:42;;;;;;;10.55;4.97;;;;;;;29.42;42.67;101462.72;5091907;28;20036;-73
2022/05/19 11:07:30;;;;;;;8.25;5.03;;;;;;;29.04;40.88;101456.41;5092379;28;20028;-73
2022/05/19 11:10:22;;;;;;;6.97;4.78;;;;;;;28.47;44.48;101463.34;5090434;28;20081;-73
2022/05/19 11:13:06;;;;;;;10.25;4.88;;;;;;;27.90;42.69;101460.31;5091461;28;20380;-73
2022/05/19 11:15:42;;;;;;;5.50;4.78;;;;;;;27.40;44.96;101454.75;5090526;28;20040;-73
2022/05/19 11:18:15;;;;;;;10.23;4.82;;;;;;;26.87;48.85;101461.91;5091797;28;20020;-73
2022/05/19 11:20:59;;;;;;;7.15;4.93;;;;;;;26.49;48.47;101474.75;5091720;28;20024;-73
2022/05/19 11:23:46;;;;;;;5.57;5.00;;;;;;;26.04;50.44;101472.09;5090907;28;20055;-72
2022/05/19 11:26:38;;;;;;;7.80;4.75;;;;;;;25.74;50.61;101487.81;5091462;28;20031;-72
2022/05/19 11:29:06;;;;;;;6.28;4.18;;;;;;;25.38;52.49;101503.00;5091262;28;20107;-72
2022/05/19 11:31:57;;;;;;;10.98;4.90;;;;;;;25.23;51.94;101505.00;5091308;28;20044;-72
2022/05/19 11:34:44;;;;;;;10.52;5.13;;;;;;;25.02;53.18;101525.25;5091419;28;20053;-72